createdAt,value
2018-05-17T00:02:07.197Z,86.80
2018-05-17T00:04:34.249Z,87.40
2018-05-17T00:07:01.309Z,87.60
2018-05-17T00:09:28.350Z,87.90
2018-05-17T00:11:55.442Z,88.10
2018-05-17T00:14:21.887Z,88.10
2018-05-17T00:16:48.205Z,88.00
2018-05-17T00:19:14.562Z,88.30
2018-05-17T00:21:40.953Z,88.00
2018-05-17T00:24:07.266Z,88.10
2018-05-17T00:26:34.350Z,88.00
2018-05-17T00:29:00.700Z,88.10
2018-05-17T00:31:27.045Z,87.90
2018-05-17T00:33:53.352Z,88.60
2018-05-17T00:36:19.687Z,87.90
2018-05-17T00:38:46.025Z,87.40
2018-05-17T00:41:12.533Z,87.00
2018-05-17T00:43:38.874Z,87.00
2018-05-17T00:46:05.193Z,87.10
2018-05-17T00:48:31.548Z,87.40
2018-05-17T00:50:58.609Z,87.40
2018-05-17T00:53:31.732Z,87.40
2018-05-17T00:55:58.076Z,87.00
2018-05-17T00:58:24.441Z,86.70
2018-05-17T01:00:50.790Z,86.80
2018-05-17T01:03:17.138Z,86.60
2018-05-17T01:05:44.393Z,86.80
2018-05-17T01:08:10.742Z,86.70
2018-05-17T01:10:37.853Z,87.10
2018-05-17T01:13:04.205Z,87.10
2018-05-17T01:15:31.280Z,87.00
2018-05-17T01:17:57.894Z,86.90
2018-05-17T01:20:25.013Z,87.30
2018-05-17T01:22:51.340Z,87.20
2018-05-17T01:25:17.663Z,87.30
2018-05-17T01:27:44.094Z,87.30
2018-05-17T01:30:11.175Z,86.10
2018-05-17T01:32:37.491Z,86.10
2018-05-17T01:35:03.921Z,85.30
2018-05-17T01:37:43.302Z,85.80
2018-05-17T01:40:09.650Z,85.70
2018-05-17T01:42:35.998Z,86.30
2018-05-17T01:45:02.427Z,86.50
2018-05-17T01:47:28.751Z,86.70
2018-05-17T01:49:55.874Z,86.80
2018-05-17T01:52:22.337Z,87.60
2018-05-17T01:54:48.716Z,87.00
2018-05-17T01:57:15.261Z,87.10
2018-05-17T01:59:42.426Z,87.30
2018-05-17T02:02:09.485Z,86.90
2018-05-17T02:04:35.813Z,86.90
2018-05-17T02:07:03.037Z,86.90
2018-05-17T02:09:29.434Z,86.80
2018-05-17T02:11:55.753Z,86.80
2018-05-17T02:14:22.185Z,86.60
2018-05-17T02:16:48.617Z,86.60
2018-05-17T02:19:15.014Z,86.70
2018-05-17T02:21:41.353Z,87.00
2018-05-17T02:24:07.714Z,86.90
2018-05-17T02:26:34.063Z,86.80
2018-05-17T02:29:00.397Z,87.20
2018-05-17T02:31:26.758Z,85.90
2018-05-17T02:33:53.821Z,86.20
2018-05-17T02:36:20.269Z,86.00
2018-05-17T02:38:46.617Z,86.40
2018-05-17T02:41:13.194Z,86.70
2018-05-17T02:43:39.526Z,87.00
2018-05-17T02:46:06.089Z,87.30
2018-05-17T02:48:33.136Z,86.00
2018-05-17T02:51:00.261Z,85.10
2018-05-17T02:53:26.567Z,85.10
2018-05-17T02:55:53.169Z,84.30
2018-05-17T02:58:19.487Z,84.40
2018-05-17T03:00:46.584Z,85.30
2018-05-17T03:03:12.949Z,85.20
2018-05-17T03:05:40.113Z,85.70
2018-05-17T03:08:07.202Z,85.60
2018-05-17T03:10:33.537Z,85.50
2018-05-17T03:12:59.871Z,85.90
2018-05-17T03:15:26.238Z,86.30
2018-05-17T03:17:53.352Z,86.80
2018-05-17T03:20:19.721Z,86.80
2018-05-17T03:22:46.797Z,86.90
2018-05-17T03:25:13.145Z,86.80
2018-05-17T03:27:39.476Z,86.70
2018-05-17T03:30:05.794Z,86.60
2018-05-17T03:32:32.117Z,86.70
2018-05-17T03:34:58.441Z,86.80
2018-05-17T03:37:24.777Z,86.70
2018-05-17T03:39:51.101Z,86.80
2018-05-17T03:42:18.229Z,86.40
2018-05-17T03:44:44.584Z,86.40
2018-05-17T03:47:10.899Z,85.80
2018-05-17T03:49:37.973Z,86.10
2018-05-17T03:52:04.321Z,86.00
2018-05-17T03:54:30.627Z,86.20
2018-05-17T03:56:57.153Z,86.10
2018-05-17T03:59:23.504Z,86.00
2018-05-17T04:02:02.071Z,85.10
2018-05-17T04:04:40.658Z,85.60
2018-05-17T04:07:07.253Z,86.00
2018-05-17T04:09:34.302Z,85.80
2018-05-17T04:12:01.370Z,84.60
2018-05-17T04:14:27.685Z,84.50
2018-05-17T04:16:54.989Z,84.70
2018-05-17T04:19:21.313Z,83.80
2018-05-17T04:21:47.726Z,84.50
2018-05-17T04:24:14.115Z,85.00
2018-05-17T04:26:40.732Z,85.50
2018-05-17T04:29:07.060Z,86.20
2018-05-17T04:31:33.373Z,85.70
2018-05-17T04:33:59.693Z,85.20
2018-05-17T04:36:26.029Z,85.60
2018-05-17T04:38:52.365Z,86.00
2018-05-17T04:41:18.729Z,86.10
2018-05-17T04:43:45.085Z,86.20
2018-05-17T04:46:11.406Z,85.90
2018-05-17T04:48:37.808Z,85.90
2018-05-17T04:51:04.208Z,85.80
2018-05-17T04:53:30.518Z,85.20
2018-05-17T04:55:56.861Z,84.50
2018-05-17T04:58:23.181Z,84.60
2018-05-17T05:00:50.304Z,83.20
2018-05-17T05:03:16.621Z,83.10
2018-05-17T05:05:42.932Z,84.10
2018-05-17T05:08:09.256Z,84.00
2018-05-17T05:10:35.570Z,84.30
2018-05-17T05:13:01.917Z,83.80
2018-05-17T05:15:28.246Z,84.20
2018-05-17T05:17:54.623Z,84.80
2018-05-17T05:20:21.685Z,84.60
2018-05-17T05:22:49.065Z,84.90
2018-05-17T05:25:16.185Z,84.90
2018-05-17T05:27:43.521Z,85.20
2018-05-17T05:30:09.901Z,85.20
2018-05-17T05:32:36.247Z,85.50
2018-05-17T05:35:02.649Z,85.20
2018-05-17T05:37:29.159Z,84.60
2018-05-17T05:39:55.478Z,84.70
2018-05-17T05:42:22.645Z,85.40
2018-05-17T05:44:49.029Z,85.40
2018-05-17T05:47:15.706Z,84.80
2018-05-17T05:49:42.037Z,84.90
2018-05-17T05:52:08.365Z,84.70
2018-05-17T05:54:34.719Z,84.30
2018-05-17T05:57:01.933Z,85.40
2018-05-17T05:59:28.273Z,85.40
2018-05-17T06:01:55.365Z,84.50
2018-05-17T06:04:21.768Z,84.60
2018-05-17T06:06:49.091Z,83.70
2018-05-17T06:09:15.450Z,83.60
2018-05-17T06:11:42.545Z,84.20
2018-05-17T06:14:08.857Z,84.10
2018-05-17T06:16:35.501Z,83.80
2018-05-17T06:19:01.826Z,83.80
2018-05-17T06:21:28.134Z,82.30
2018-05-17T06:23:55.252Z,82.80
2018-05-17T06:26:21.878Z,82.80
2018-05-17T06:28:48.181Z,82.10
2018-05-17T06:31:14.541Z,82.90
2018-05-17T06:33:40.886Z,84.40
2018-05-17T06:36:07.337Z,84.10
2018-05-17T06:38:33.669Z,84.10
2018-05-17T06:40:59.973Z,83.60
2018-05-17T06:43:26.353Z,83.40
2018-05-17T06:45:53.443Z,83.10
2018-05-17T06:48:19.738Z,83.10
2018-05-17T06:50:46.976Z,80.90
2018-05-17T06:53:14.061Z,80.20
2018-05-17T06:55:41.773Z,80.90
2018-05-17T06:58:08.840Z,81.00
2018-05-17T07:00:35.187Z,80.80
2018-05-17T07:03:02.288Z,81.10
2018-05-17T07:05:28.621Z,81.00
2018-05-17T07:07:54.985Z,80.90
2018-05-17T07:10:22.054Z,81.30
2018-05-17T07:12:48.477Z,80.60
2018-05-17T07:15:14.913Z,81.20
2018-05-17T07:17:41.284Z,81.70
2018-05-17T07:20:07.593Z,81.60
2018-05-17T07:22:33.961Z,81.60
2018-05-17T07:25:00.269Z,82.00
2018-05-17T07:27:26.875Z,82.10
2018-05-17T07:29:53.243Z,82.30
2018-05-17T07:32:19.632Z,82.60
2018-05-17T07:34:45.986Z,83.00
2018-05-17T07:37:12.369Z,82.90
2018-05-17T07:39:38.682Z,82.60
2018-05-17T07:42:05.054Z,81.80
2018-05-17T07:44:32.122Z,82.10
2018-05-17T07:46:58.969Z,82.00
2018-05-17T07:49:25.304Z,81.80
2018-05-17T07:51:52.381Z,81.30
2018-05-17T07:54:18.707Z,81.20
2018-05-17T07:56:45.425Z,81.60
2018-05-17T07:59:11.737Z,81.80
2018-05-17T08:01:38.049Z,80.60
2018-05-17T08:04:04.373Z,79.60
2018-05-17T08:06:30.826Z,78.30
2018-05-17T08:08:57.165Z,77.70
2018-05-17T08:11:23.540Z,79.20
2018-05-17T08:13:49.913Z,79.40
2018-05-17T08:16:16.391Z,77.00
2018-05-17T08:18:42.746Z,76.60
2018-05-17T08:21:09.048Z,76.30
2018-05-17T08:23:35.381Z,76.40
2018-05-17T08:26:02.480Z,76.40
2018-05-17T08:28:29.604Z,76.40
2018-05-17T08:30:55.914Z,76.40
2018-05-17T08:33:22.382Z,74.50
2018-05-17T08:35:49.530Z,74.80
2018-05-17T08:38:15.909Z,74.70
2018-05-17T08:40:42.213Z,74.30
2018-05-17T08:43:09.273Z,73.70
2018-05-17T08:45:35.656Z,73.70
2018-05-17T08:48:01.961Z,74.00
2018-05-17T08:50:28.300Z,74.60
2018-05-17T08:52:54.645Z,73.60
2018-05-17T08:55:20.990Z,72.80
2018-05-17T08:57:47.428Z,73.20
2018-05-17T09:00:13.762Z,73.10
2018-05-17T09:02:40.082Z,70.80
2018-05-17T09:05:06.405Z,71.10
2018-05-17T09:07:32.998Z,72.30
2018-05-17T09:09:59.318Z,72.60
2018-05-17T09:12:25.621Z,71.80
2018-05-17T09:14:52.726Z,74.40
2018-05-17T09:17:19.149Z,74.30
2018-05-17T09:19:45.470Z,73.30
2018-05-17T09:22:11.793Z,73.20
2018-05-17T09:24:38.122Z,73.40
2018-05-17T09:27:04.601Z,72.30
2018-05-17T09:29:30.921Z,71.30
2018-05-17T09:31:57.249Z,70.30
2018-05-17T09:34:23.596Z,68.70
2018-05-17T09:36:50.222Z,68.40
2018-05-17T09:39:17.477Z,68.10
2018-05-17T09:41:43.786Z,68.00
2018-05-17T09:44:10.126Z,67.70
2018-05-17T09:46:36.466Z,69.10
2018-05-17T09:49:02.824Z,68.80
2018-05-17T09:51:29.125Z,67.70
2018-05-17T09:53:55.509Z,66.90
2018-05-17T09:56:22.605Z,67.90
2018-05-17T09:58:48.940Z,67.80
2018-05-17T10:01:15.288Z,66.50
2018-05-17T10:03:41.594Z,66.70
2018-05-17T10:06:07.902Z,67.90
2018-05-17T10:08:34.225Z,67.70
2018-05-17T10:11:00.525Z,68.80
2018-05-17T10:13:26.881Z,67.80
2018-05-17T10:15:53.937Z,68.10
2018-05-17T10:18:20.261Z,68.00
2018-05-17T10:20:47.549Z,68.00
2018-05-17T10:23:14.625Z,68.00
2018-05-17T10:25:40.978Z,67.30
2018-05-17T10:28:07.312Z,67.90
2018-05-17T10:30:34.401Z,66.60
2018-05-17T10:33:00.714Z,66.40
2018-05-17T10:35:27.881Z,67.60
2018-05-17T10:37:54.614Z,67.60
2018-05-17T10:40:21.001Z,65.40
2018-05-17T10:42:48.173Z,65.40
2018-05-17T10:45:15.277Z,64.90
2018-05-17T10:47:41.829Z,64.80
2018-05-17T10:50:08.917Z,66.20
2018-05-17T10:52:35.245Z,66.00
2018-05-17T10:55:01.569Z,64.40
2018-05-17T10:57:27.977Z,63.70
2018-05-17T10:59:54.285Z,63.60
2018-05-17T11:02:20.629Z,62.00
2018-05-17T11:04:46.972Z,60.60
2018-05-17T11:07:13.478Z,61.50
2018-05-17T11:09:39.805Z,63.10
2018-05-17T11:12:06.858Z,64.00
2018-05-17T11:14:33.184Z,64.00
2018-05-17T11:17:00.572Z,66.90
2018-05-17T11:19:27.622Z,66.80
2018-05-17T11:21:54.734Z,67.40
2018-05-17T11:24:21.169Z,67.40
2018-05-17T11:26:47.626Z,67.80
2018-05-17T11:29:13.957Z,68.00
2018-05-17T11:31:40.256Z,67.90
2018-05-17T11:34:06.579Z,68.20
2018-05-17T11:36:33.190Z,69.00
2018-05-17T11:38:59.509Z,69.00
2018-05-17T11:41:25.821Z,68.50
2018-05-17T11:43:52.201Z,69.00
2018-05-17T11:46:18.573Z,68.30
2018-05-17T11:48:44.901Z,69.90
2018-05-17T11:51:11.257Z,70.30
2018-05-17T11:53:37.594Z,68.60
2018-05-17T11:56:04.684Z,69.10
2018-05-17T11:58:31.021Z,69.10
2018-05-17T12:00:57.335Z,68.10
2018-05-17T12:03:23.709Z,68.10
2018-05-17T12:05:50.053Z,68.50
2018-05-17T12:08:16.369Z,68.80
2018-05-17T12:10:42.694Z,68.30
2018-05-17T12:13:09.020Z,67.60
2018-05-17T12:15:35.369Z,67.40
2018-05-17T12:18:03.373Z,69.20
2018-05-17T12:20:29.685Z,69.20
2018-05-17T12:22:56.168Z,69.10
2018-05-17T12:25:22.613Z,69.30
2018-05-17T12:27:49.213Z,67.50
2018-05-17T12:30:15.561Z,65.20
2018-05-17T12:32:41.877Z,65.50
2018-05-17T12:35:08.193Z,66.90
2018-05-17T12:37:35.337Z,65.10
2018-05-17T12:40:02.401Z,64.50
2018-05-17T12:42:28.746Z,64.50
2018-05-17T12:44:55.105Z,65.90
2018-05-17T12:47:21.469Z,66.10
2018-05-17T12:49:48.611Z,67.10
2018-05-17T12:52:14.963Z,67.10
2018-05-17T12:54:41.284Z,67.40
2018-05-17T12:57:08.515Z,67.20
2018-05-17T12:59:34.854Z,67.20
2018-05-17T13:02:01.170Z,66.90
2018-05-17T13:04:27.481Z,63.70
2018-05-17T13:06:54.138Z,62.40
2018-05-17T13:09:20.473Z,63.40
2018-05-17T13:11:46.785Z,62.30
2018-05-17T13:14:13.091Z,62.50
2018-05-17T13:16:39.426Z,63.10
2018-05-17T13:19:05.785Z,62.60
2018-05-17T13:21:32.107Z,62.20
2018-05-17T13:23:58.451Z,62.20
2018-05-17T13:26:24.846Z,60.90
2018-05-17T13:28:51.245Z,62.40
2018-05-17T13:31:18.327Z,60.60
2018-05-17T13:33:44.680Z,60.60
2018-05-17T13:36:10.987Z,61.10
2018-05-17T13:38:37.289Z,60.10
2018-05-17T13:41:03.633Z,59.00
2018-05-17T13:43:30.706Z,59.80
2018-05-17T13:45:57.097Z,59.80
2018-05-17T13:48:24.202Z,58.20
2018-05-17T13:50:51.437Z,56.30
2018-05-17T13:53:17.781Z,56.20
2018-05-17T13:55:44.099Z,56.30
2018-05-17T13:58:10.441Z,56.80
2018-05-17T14:00:36.777Z,57.80
2018-05-17T14:03:03.105Z,58.50
2018-05-17T14:05:30.161Z,53.90
2018-05-17T14:07:56.550Z,53.80
2018-05-17T14:10:22.920Z,53.50
2018-05-17T14:12:49.409Z,54.60
2018-05-17T14:15:16.509Z,56.30
2018-05-17T14:17:42.949Z,56.30
2018-05-17T14:20:09.292Z,56.60
2018-05-17T14:22:35.606Z,57.10
2018-05-17T14:25:02.130Z,57.60
2018-05-17T14:27:28.503Z,57.20
2018-05-17T14:29:55.554Z,58.50
2018-05-17T14:32:22.821Z,58.80
2018-05-17T14:34:49.229Z,58.80
2018-05-17T14:37:15.877Z,60.20
2018-05-17T14:39:42.945Z,60.00
2018-05-17T14:42:09.265Z,60.00
2018-05-17T14:44:36.330Z,59.00
2018-05-17T14:47:02.964Z,58.90
2018-05-17T14:49:29.329Z,58.90
2018-05-17T14:51:55.677Z,58.60
2018-05-17T14:54:22.365Z,58.30
2018-05-17T14:56:48.777Z,58.70
2018-05-17T14:59:15.851Z,59.50
2018-05-17T15:01:42.197Z,59.50
2018-05-17T15:04:08.499Z,59.90
2018-05-17T15:06:35.850Z,59.90
2018-05-17T15:09:03.013Z,60.60
2018-05-17T15:11:29.354Z,61.40
2018-05-17T15:13:55.756Z,60.60
2018-05-17T15:16:22.867Z,60.20
2018-05-17T15:18:49.193Z,60.20
2018-05-17T15:21:15.521Z,60.10
2018-05-17T15:23:41.877Z,60.50
2018-05-17T15:26:08.186Z,60.80
2018-05-17T15:28:34.521Z,61.50
2018-05-17T15:31:00.905Z,61.50
2018-05-17T15:33:27.289Z,61.40
2018-05-17T15:35:53.692Z,61.30
2018-05-17T15:38:20.154Z,61.10
2018-05-17T15:40:46.473Z,62.50
2018-05-17T15:43:12.802Z,62.20
2018-05-17T15:45:39.129Z,61.70
2018-05-17T15:48:05.494Z,62.20
2018-05-17T15:50:31.828Z,61.80
2018-05-17T15:52:58.226Z,59.90
2018-05-17T15:55:24.553Z,60.80
2018-05-17T15:57:51.002Z,61.40
2018-05-17T16:00:17.313Z,61.80
2018-05-17T16:02:43.657Z,61.50
2018-05-17T16:05:09.990Z,61.50
2018-05-17T16:07:37.409Z,60.60
2018-05-17T16:10:03.774Z,59.90
2018-05-17T16:12:30.095Z,59.50
2018-05-17T16:14:56.465Z,60.00
2018-05-17T16:17:23.056Z,60.20
2018-05-17T16:19:49.421Z,60.20
2018-05-17T16:22:15.753Z,60.80
2018-05-17T16:24:42.057Z,61.40
2018-05-17T16:27:08.421Z,61.90
2018-05-17T16:29:34.785Z,62.50
2018-05-17T16:32:01.103Z,62.10
2018-05-17T16:34:28.165Z,60.60
2018-05-17T16:36:54.732Z,60.50
2018-05-17T16:39:21.103Z,60.50
2018-05-17T16:41:47.427Z,60.60
2018-05-17T16:44:13.785Z,60.60
2018-05-17T16:46:40.874Z,62.00
2018-05-17T16:49:07.216Z,61.90
2018-05-17T16:51:33.525Z,61.80
2018-05-17T16:54:00.005Z,61.80
2018-05-17T16:56:26.347Z,62.80
2018-05-17T16:58:52.917Z,63.80
2018-05-17T17:01:19.213Z,63.80
2018-05-17T17:03:45.528Z,63.20
2018-05-17T17:06:11.886Z,63.00
2018-05-17T17:08:38.965Z,64.10
2018-05-17T17:11:05.411Z,64.00
2018-05-17T17:13:31.887Z,62.80
2018-05-17T17:15:59.017Z,61.70
2018-05-17T17:18:25.454Z,61.60
2018-05-17T17:20:51.984Z,63.60
2018-05-17T17:23:18.362Z,64.00
2018-05-17T17:25:44.874Z,64.20
2018-05-17T17:28:12.556Z,64.20
2018-05-17T17:30:39.628Z,63.20
2018-05-17T17:33:06.180Z,63.20
2018-05-17T17:35:32.516Z,63.60
2018-05-17T17:37:58.906Z,65.00
2018-05-17T17:40:32.094Z,63.30
2018-05-17T17:42:59.256Z,62.90
2018-05-17T17:45:26.381Z,63.20
2018-05-17T17:47:53.635Z,63.60
2018-05-17T17:50:20.759Z,63.00
2018-05-17T17:52:47.078Z,62.90
2018-05-17T17:55:13.434Z,63.30
2018-05-17T17:57:39.769Z,63.80
2018-05-17T18:00:06.126Z,64.50
2018-05-17T18:02:33.181Z,66.30
2018-05-17T18:04:59.538Z,66.20
2018-05-17T18:07:25.930Z,66.80
2018-05-17T18:09:53.232Z,67.40
2018-05-17T18:12:19.633Z,67.40
2018-05-17T18:14:46.744Z,66.80
2018-05-17T18:17:14.253Z,68.00
2018-05-17T18:19:40.606Z,67.20
2018-05-17T18:22:06.956Z,67.10
2018-05-17T18:24:33.507Z,67.80
2018-05-17T18:27:00.693Z,69.60
2018-05-17T18:29:27.053Z,69.60
2018-05-17T18:31:53.455Z,70.60
2018-05-17T18:34:19.806Z,71.20
2018-05-17T18:36:46.225Z,71.60
2018-05-17T18:39:12.590Z,72.50
2018-05-17T18:41:38.940Z,73.10
2018-05-17T18:44:05.266Z,73.20
2018-05-17T18:46:31.698Z,73.50
2018-05-17T18:48:58.124Z,73.70
2018-05-17T18:51:24.485Z,74.20
2018-05-17T18:53:51.611Z,75.20
2018-05-17T18:56:18.210Z,75.10
2018-05-17T18:58:44.545Z,75.60
2018-05-17T19:01:11.622Z,75.50
2018-05-17T19:03:37.969Z,75.50
2018-05-17T19:06:04.648Z,75.40
2018-05-17T19:08:30.973Z,75.40
2018-05-17T19:10:57.497Z,75.60
2018-05-17T19:13:24.580Z,75.50
2018-05-17T19:15:50.921Z,75.50
2018-05-17T19:18:17.341Z,75.70
2018-05-17T19:20:43.694Z,76.00
2018-05-17T19:23:10.053Z,76.60
2018-05-17T19:25:36.796Z,77.00
2018-05-17T19:28:03.084Z,76.90
2018-05-17T19:30:29.429Z,76.80
2018-05-17T19:32:55.791Z,76.60
2018-05-17T19:35:22.444Z,76.40
2018-05-17T19:37:49.552Z,77.00
2018-05-17T19:40:15.873Z,76.90
2018-05-17T19:42:42.193Z,77.10
2018-05-17T19:45:09.313Z,77.10
2018-05-17T19:47:36.301Z,77.10
2018-05-17T19:50:02.683Z,77.50
2018-05-17T19:52:29.059Z,77.90
2018-05-17T19:54:55.476Z,78.50
2018-05-17T19:57:22.953Z,78.60
2018-05-17T19:59:49.280Z,78.50
2018-05-17T20:02:15.633Z,78.80
2018-05-17T20:04:42.019Z,79.20
2018-05-17T20:07:08.607Z,79.40
2018-05-17T20:09:34.921Z,79.40
2018-05-17T20:12:01.343Z,79.30
2018-05-17T20:14:27.677Z,79.30
2018-05-17T20:16:54.154Z,79.50
2018-05-17T20:19:21.221Z,79.90
2018-05-17T20:21:47.562Z,79.90
2018-05-17T20:24:13.906Z,80.20
2018-05-17T20:26:40.357Z,80.10
2018-05-17T20:29:06.669Z,80.10
2018-05-17T20:31:33.125Z,80.00
2018-05-17T20:33:59.475Z,79.80
2018-05-17T20:36:26.181Z,79.50
2018-05-17T20:38:52.533Z,79.30
2018-05-17T20:41:19.597Z,79.40
2018-05-17T20:43:45.949Z,79.40
2018-05-17T20:46:13.203Z,79.40
2018-05-17T20:48:40.261Z,79.80
2018-05-17T20:51:06.593Z,80.30
2018-05-17T20:53:32.901Z,79.90
2018-05-17T20:56:00.343Z,80.30
2018-05-17T20:58:26.761Z,80.30
2018-05-17T21:00:53.169Z,80.20
2018-05-17T21:03:20.226Z,80.60
2018-05-17T21:05:46.549Z,80.60
2018-05-17T21:08:12.881Z,80.60
2018-05-17T21:10:39.186Z,81.00
2018-05-17T21:13:05.565Z,81.00
2018-05-17T21:15:31.887Z,80.90
2018-05-17T21:17:58.204Z,81.10
2018-05-17T21:20:24.624Z,81.10
2018-05-17T21:22:50.959Z,81.10
2018-05-17T21:25:17.355Z,81.30
2018-05-17T21:27:44.453Z,81.50
2018-05-17T21:30:10.781Z,81.40
2018-05-17T21:32:37.089Z,81.40
2018-05-17T21:35:03.453Z,81.60
2018-05-17T21:37:29.770Z,82.10
2018-05-17T21:39:56.117Z,82.00
2018-05-17T21:42:23.425Z,81.60
2018-05-17T21:44:50.609Z,81.80
2018-05-17T21:47:17.157Z,81.70
2018-05-17T21:49:43.482Z,82.10
2018-05-17T21:52:10.548Z,82.30
2018-05-17T21:54:36.887Z,82.30
2018-05-17T21:57:03.321Z,82.50
2018-05-17T21:59:29.642Z,82.50
2018-05-17T22:01:56.101Z,82.70
2018-05-17T22:04:23.243Z,82.50
2018-05-17T22:06:49.897Z,82.40
2018-05-17T22:09:16.178Z,82.30
2018-05-17T22:11:42.585Z,82.40
2018-05-17T22:14:08.972Z,82.40
2018-05-17T22:16:35.624Z,82.30
2018-05-17T22:19:02.745Z,82.20
2018-05-17T22:21:29.052Z,82.20
2018-05-17T22:23:55.381Z,81.80
2018-05-17T22:26:21.869Z,81.80
2018-05-17T22:28:48.930Z,81.50
2018-05-17T22:31:15.273Z,81.50
2018-05-17T22:33:41.626Z,81.50
2018-05-17T22:36:08.179Z,81.60
2018-05-17T22:38:34.513Z,81.70
2018-05-17T22:41:00.877Z,81.90
2018-05-17T22:43:27.977Z,82.10
2018-05-17T22:45:54.459Z,82.00
2018-05-17T22:48:21.521Z,82.00
2018-05-17T22:50:48.690Z,81.80
2018-05-17T22:53:15.049Z,81.80
2018-05-17T22:55:41.645Z,81.70
2018-05-17T22:58:20.097Z,81.40
2018-05-17T23:00:46.415Z,81.10
2018-05-17T23:03:12.730Z,80.80
2018-05-17T23:05:39.105Z,80.50
2018-05-17T23:08:05.449Z,80.00
2018-05-17T23:10:31.803Z,79.80
2018-05-17T23:12:58.195Z,79.80
2018-05-17T23:15:25.405Z,80.20
2018-05-17T23:17:51.928Z,80.10
2018-05-17T23:20:18.995Z,78.90
2018-05-17T23:22:45.362Z,78.90
2018-05-17T23:25:11.696Z,79.00
2018-05-17T23:27:38.042Z,78.90
2018-05-17T23:30:04.411Z,80.10
2018-05-17T23:32:30.729Z,79.40
2018-05-17T23:34:57.798Z,79.20
2018-05-17T23:37:24.174Z,79.20
2018-05-17T23:39:50.483Z,79.00
2018-05-17T23:42:17.597Z,78.70
2018-05-17T23:44:43.902Z,78.70
2018-05-17T23:47:11.042Z,79.00
2018-05-17T23:49:38.097Z,78.80
2018-05-17T23:52:04.420Z,78.80
2018-05-17T23:54:30.851Z,78.80
2018-05-17T23:56:57.225Z,79.10
2018-05-17T23:59:23.574Z,79.20
